Weather observations for the past three days for
Manistee County - Blacker Airport
Metric (Imperial)
Date Time (edt) Wind (kph) Vis. (km) Weather Sky Cond. Temperature (ºC) Relative Humidity Wind Chill (°C) Heat Index (°C) Pressure Precipitation (cm)
Air Dwpt 6 hour altimeter (cm) sea level (mb) 1 hr 3 hr 6 hr
Max. Min.
04 05:56 S 7 8.05 Rain Fog/Mist BKN043 OVC070 20 20 100% 76.05 1013.7 0.2
04 04:56 Calm 14.48 Light Rain FEW032 BKN050 BKN065 20 20 100% 76.05 1013.8 0.03 0.03
04 03:56 E 6 1.61 Fog/Mist OVC003 19.4 19.4 100% 76 1012.9
04 02:56 E 7 0.80 Fog OVC003 19.4 19.4 100% 76.05 1013.5
04 01:56 NE 6 8.05 Fog/Mist FEW001 20 19.4 22.8 19.4 96% 76.1 1014.2
04 00:56 SE 6 8.05 Fog/Mist FEW002 19.4 19.4 100% 76.1 1014.3
03 23:56 SE 6 8.05 Fog/Mist BKN016 19.4 19.4 100% 76.15 1014.8
03 22:56 Calm 12.87 Mostly Cloudy BKN001 20 19.4 96% 76.12 1014.6
03 21:56 Calm 1.21 Fog/Mist VV002 20 20 100% 76.1 1014.3
03 20:56 Calm 14.48 Fair CLR 21.1 20.6 97% 76.05 1013.8
03 19:56 NW 6 16.09 Fair CLR 22.8 21.1 25.6 20.6 90% 76.05 1013.7 0.15
03 18:56 NW 9 16.09 Fair CLR 24.4 21.7 85% 25 76.02 0.0
03 17:56 SW 6 16.09 Partly Cloudy SCT015 25 21.7 82% 26 75.97 1012.7
03 16:56 Calm 16.09 Overcast OVC017 23.9 21.7 88% 24 76.02 1013.3 0.15
03 15:56 S 15 16.09 Mostly Cloudy BKN008 23.9 21.7 88% 24 75.95 1012.2 0.03
03 14:56 SE 9 16.09 Light Rain FEW004 SCT012 21.1 21.1 100% 76.05 1013.9 0.13
03 13:56 SE 6 11.27 Rain BKN070 OVC085 20.6 20 22.8 18.9 96% 76.12 1014.8 0.1 1.57
03 12:56 NW 9 16.09 Thunderstorm in Vicinity Light Rain FEW034 BKN055 OVC085 20.6 20 96% 76.12 1014.8 0.38
03 11:56 SW 13 8.05 Thunderstorm Heavy Rain Fog/Mist SCT021 BKN033 OVC095 20 19.4 96% 76.12 1014.6 0.86
03 10:56 E 9 16.09 Thunderstorm in Vicinity Light Rain FEW020 SCT038 BKN060 21.1 20.6 97% 76 1012.8 0.23 0.23
03 09:56 E 13 16.09 A Few Clouds FEW080 22.2 18.9 82% 76.02 1013.3
03 08:56 E 9 16.09 Mostly Cloudy BKN065 BKN080 20 18.3 90% 76.05 1013.6
03 07:56 E 6 16.09 NULL NULL 18.9 18.3 96% 76.07 1014.0
03 05:56 Calm 12.87 Fair CLR 17.8 17.8 100% 0 0.0
03 04:56 E 7 14.48 Fair CLR 17.8 17.8 100% 0 0.0
03 03:56 Calm 16.09 Fair CLR 17.8 17.8 100% 0 0.0
03 02:56 E 6 16.09 Fair CLR 17.2 17.2 100% 0 0.0
03 01:56 SE 6 14.48 Fair CLR 17.8 17.8 23.9 17.8 100% 0 0.0
03 00:56 Calm 16.09 Overcast OVC050 18.3 17.8 97% 0 0.0
02 23:56 Calm 16.09 Fair CLR 18.3 18.3 100% 0 0.0
02 21:56 Calm 16.09 Fair CLR 19.4 18.9 97% 0 0.0
02 20:56 Calm 16.09 Fair CLR 20.6 19.4 93% 0 0.0
02 19:56 Calm 16.09 Fair CLR 23.9 19.4 26.7 23.9 76% 24 0 0.0
02 18:56 Calm 16.09 Partly Cloudy SCT090 25 18.3 66% 26 0 0.0
02 17:56 NW 7 16.09 Fair CLR 25 18.9 69% 26 0 0.0
02 16:56 NW 9 16.09 Partly Cloudy SCT100 25.6 19.4 69% 27 0 0.0
02 15:56 W 15 16.09 Fair CLR 25 19.4 71% 26 0 0.0
02 14:56 SW 9 16.09 Fair CLR 26.1 21.1 74% 28 0 0.0
02 13:56 Calm 16.09 Fair CLR 24.4 21.7 25 18.3 85% 25 0 0.0
02 12:56 NW 15 16.09 Light Rain FEW060 BKN120 23.9 21.7 88% 24 0 0.0
02 11:56 Calm 16.09 Mostly Cloudy BKN100 24.4 20 77% 25 0 0.0
02 10:56 E 6 16.09 Partly Cloudy SCT100 22.8 19.4 81% 0 0.0
02 09:56 E 7 16.09 Mostly Cloudy SCT100 BKN110 21.1 18.9 87% 0 0.0
02 08:56 SE 6 16.09 Mostly Cloudy BKN110 18.9 17.8 93% 0 0.0
02 07:56 N 22 G 44 14.48 Thunderstorm Light Rain SCT023 SCT050 BKN075 18.9 17.2 24.4 -8.3 90% 0 0.0 0.18 0.18
02 06:56 Calm 16.09 Partly Cloudy SCT060 SCT120 21.7 21.1 96% 76.02 1013.2
02 05:56 S 6 16.09 Partly Cloudy SCT120 22.2 21.7 97% 75.95 1012.1
02 04:56 SW 9 16.09 Mostly Cloudy BKN110 23.3 21.7 91% 76.02 1013.0
02 03:56 W 7 16.09 A Few Clouds FEW110 23.3 22.2 94% 75.97 1012.3
02 02:56 Vrbl 6 16.09 Fair CLR 24.4 22.8 91% 24 75.97 1012.4
02 01:56 Calm 16.09 Fair CLR 23.3 22.8 27.2 23.3 97% 75.97 1012.4
02 00:56 Calm 14.48 Fair CLR 23.3 22.8 97% 75.95 1012.1
01 23:56 SW 6 16.09 Fair CLR 25 23.3 90% 26 75.97 1012.1
01 22:56 S 7 16.09 Fair CLR 25.6 23.9 90% 27 75.97 1012.5
01 21:56 Vrbl 6 16.09 Fair CLR 26.1 23.9 88% 28 75.97 1012.3
01 20:56 Calm 16.09 Fair CLR 26.1 23.9 88% 28 75.92 1011.8
01 19:56 Calm 16.09 Fair CLR 27.2 23.9 30.6 27.2 82% 30 75.95 1012.1
01 18:56 SW 11 16.09 Fair CLR 28.9 24.4 77% 34 75.95 1012.2
01 17:56 W 19 16.09 Fair CLR 28.9 24.4 77% 34 75.95 1012.3
01 16:56 W 19 16.09 Fair CLR 29.4 24.4 75% 35 75.95 1012.1
01 15:56 W 19 16.09 Fair CLR 29.4 24.4 75% 35 75.97 1012.4
01 14:56 W 17 16.09 Fair CLR 30 24.4 72% 36 76 1012.7
01 13:56 Calm 16.09 Fair CLR 29.4 24.4 30 20 75% 35 76.02 1013.0
01 12:56 W 9 16.09 Mostly Cloudy FEW019 BKN026 BKN042 27.8 23.9 79% 32 76.07 1013.7
01 11:56 NW 17 16.09 Overcast OVC018 27.2 23.3 79% 30 76.05 1013.7
01 10:56 Calm 16.09 Fair CLR 27.2 23.9 82% 30 76.02 1013.2
01 09:56 E 7 11.27 Partly Cloudy SCT003 23.9 22.8 94% 23 76.05 1013.3
01 08:56 E 7 2.41 Fog/Mist OVC003 21.7 21.7 100% 76.05 1013.5
01 07:56 E 7 4.02 Fog/Mist BKN041 20 20 21.1 18.9 100% 76.02 1013.2
01 06:56 E 6 3.22 Fog/Mist CLR 19.4 19.4 100% 75.97 1012.7
Date Time (edt) Wind (kph) Vis. (km) Weather Sky Cond. Air Dwpt Max. Min. Relative Humidity Wind Chill (°C) Heat Index (°C) altimeter (cm) sea level (mb) 1 hr 3 hr 6 hr
6 hour
Temperature (ºC) Pressure Precipitation (cm)